Time;durP1;ratioP1;P1;durP2;ratioP2;P2;SDS_P1;SDS_P2;PMS_P1;PMS_P2;Temp;Humidity;BMP_temperature;BMP_pressure;BME280_temperature;BME280_humidity;BME280_pressure;Samples;Min_cycle;Max_cycle;Signal;HPM_P1;HPM_P2
2021/11/09 00:02:11;;;;;;;;;;;;;;;;;;;;;
2021/11/09 00:05:20;;;;;;;6.30;3.75;;;;;;;3.77;89.39;93056.69;4997012;28;20104;-92
2021/11/09 00:08:10;;;;;;;8.00;4.47;;;;;;;3.82;89.27;93067.13;5011581;28;20046;-94
2021/11/09 00:11:29;;;;;;;6.53;3.60;;;;;;;3.75;89.55;93050.94;4998443;28;20368;-93
2021/11/09 00:14:10;;;;;;;8.02;4.10;;;;;;;3.73;89.95;93046.00;5012977;28;20018;-94
2021/11/09 00:17:29;;;;;;;5.60;3.63;;;;;;;3.80;89.67;93064.00;4999762;28;20038;-93
2021/11/09 00:21:01;;;;;;;7.40;3.85;;;;;;;3.77;89.64;93058.50;5004369;28;20042;-94
2021/11/09 00:24:00;;;;;;;7.65;4.25;;;;;;;3.75;89.64;93051.72;5013595;28;20041;-92
2021/11/09 00:27:09;;;;;;;;;;;;;;;;;;;;;
2021/11/09 00:30:29;;;;;;;;;;;;;;;;;;;;;
2021/11/09 00:33:28;;;;;;;;;;;;;;;;;;;;;
2021/11/09 00:36:32;;;;;;;6.30;3.78;;;;;;;3.52;89.54;93042.22;5001260;28;20053;-93
2021/11/09 00:39:22;;;;;;;6.50;3.78;;;;;;;3.49;89.30;93053.06;4997396;28;20034;-93
2021/11/09 00:42:53;;;;;;;5.68;3.53;;;;;;;3.38;89.76;93050.47;5003099;28;20690;-94
2021/11/09 00:45:59;;;;;;;6.78;3.85;;;;;;;3.25;89.93;93041.16;4992300;28;20057;-94
2021/11/09 00:49:07;;;;;;;7.90;4.22;;;;;;;3.22;89.88;93044.19;5013546;28;20041;-93
2021/11/09 00:52:17;;;;;;;8.05;4.38;;;;;;;3.11;89.69;93038.81;4956585;28;20407;-93
2021/11/09 00:55:07;;;;;;;12.57;4.10;;;;;;;3.07;89.92;93034.31;5006106;28;20064;-93
2021/11/09 00:58:08;;;;;;;8.15;4.28;;;;;;;2.98;89.80;93028.69;4986146;28;20038;-94
2021/11/09 01:01:42;;;;;;;8.85;4.43;;;;;;;3.03;89.79;93030.59;5029422;28;20053;-94
2021/11/09 01:04:23;;;;;;;;;;;;;;;;;;;;;
2021/11/09 01:07:02;;;;;;;7.05;3.78;;;;;;;2.86;89.57;93014.97;5019023;28;20040;-92
2021/11/09 01:09:48;;;;;;;9.05;4.22;;;;;;;2.89;89.70;93017.91;5020667;28;20039;-92
2021/11/09 01:12:37;;;;;;;7.32;4.68;;;;;;;2.82;89.98;93011.28;4967945;28;20049;-93
2021/11/09 01:15:35;;;;;;;6.65;4.10;;;;;;;2.77;89.86;93018.91;5001427;28;20489;-92
2021/11/09 01:18:18;;;;;;;8.70;4.67;;;;;;;2.76;89.98;93012.16;4984065;28;20034;-93
2021/11/09 01:21:11;;;;;;;7.18;4.30;;;;;;;2.80;90.23;93021.06;4991837;28;20276;-94
2021/11/09 01:24:14;;;;;;;11.05;4.80;;;;;;;2.85;90.42;93034.09;5036239;28;20039;-92
2021/11/09 01:30:34;;;;;;;9.68;4.55;;;;;;;2.70;90.48;93027.56;5014486;28;20045;-93
2021/11/09 01:39:26;;;;;;;10.98;4.68;;;;;;;2.66;90.00;92992.06;5015031;28;20034;-92
2021/11/09 01:42:29;;;;;;;7.57;4.30;;;;;;;2.57;90.02;92988.22;5017475;28;20037;-93
2021/11/09 01:48:40;;;;;;;7.05;4.20;;;;;;;2.43;90.53;92972.13;5031464;28;20486;-94
2021/11/09 01:51:47;;;;;;;;;;;;;;;;;;;;;
2021/11/09 01:54:32;;;;;;;6.22;3.90;;;;;;;2.49;90.59;92992.72;5001061;28;20046;-92
2021/11/09 01:57:14;;;;;;;7.68;3.85;;;;;;;2.40;90.50;92988.88;4994028;28;20045;-93
2021/11/09 02:00:05;;;;;;;6.63;3.47;;;;;;;2.49;92.58;92977.19;5035279;28;20034;-93
2021/11/09 02:03:03;;;;;;;7.25;4.30;;;;;;;2.62;92.42;92996.88;5045790;28;20073;-93
2021/11/09 02:06:07;;;;;;;9.45;3.65;;;;;;;2.49;90.79;92969.44;5032432;28;20021;-92
2021/11/09 02:09:02;;;;;;;6.57;3.53;;;;;;;2.41;90.01;92961.25;5026275;28;20045;-96
2021/11/09 02:12:08;;;;;;;;;;;;;;;;;;;;;
2021/11/09 02:17:42;;;;;;;6.13;3.17;;;;;;;2.39;89.73;92958.13;5023056;28;20049;-94
2021/11/09 02:20:49;;;;;;;6.15;3.80;;;;;;;2.45;89.22;92968.31;5014760;28;20034;-92
2021/11/09 02:23:47;;;;;;;10.13;3.17;;;;;;;2.36;89.70;92968.88;5016389;28;20045;-93
2021/11/09 02:30:22;;;;;;;;;;;;;;;;;;;;;
2021/11/09 02:33:24;;;;;;;5.32;3.20;;;;;;;2.22;90.05;92976.84;5033610;28;20029;-94
2021/11/09 02:36:41;;;;;;;5.85;3.20;;;;;;;2.14;90.23;92969.44;5020710;28;20377;-92
2021/11/09 02:39:48;;;;;;;;;;;;;;;;;;;;;
2021/11/09 02:43:09;;;;;;;;;;;;;;;;;;;;;
2021/11/09 02:49:41;;;;;;;;;;;;;;;;;;;;;
2021/11/09 02:52:28;;;;;;;;;;;;;;;;;;;;;
2021/11/09 02:56:05;;;;;;;6.38;3.70;;;;;;;2.10;91.39;92967.50;5034185;28;20045;-92
2021/11/09 02:59:35;;;;;;;4.65;3.13;;;;;;;2.03;91.77;92967.63;5023605;28;20053;-93
2021/11/09 03:08:46;;;;;;;4.93;2.95;;;;;;;1.96;91.96;92964.31;4957450;28;20039;-91
2021/11/09 03:11:29;;;;;;;4.72;2.60;;;;;;;2.05;92.69;92975.94;5010851;28;20509;-94
2021/11/09 03:14:17;;;;;;;7.55;3.65;;;;;;;1.97;92.45;92968.50;5033696;28;20042;-93
2021/11/09 03:17:00;;;;;;;;;;;;;;;;;;;;;
2021/11/09 03:47:25;;;;;;;4.65;2.42;;;;;;;1.77;90.15;92981.69;5008280;28;20050;-93
2021/11/09 03:50:26;;;;;;;;;;;;;;;;;;;;;
2021/11/09 03:57:08;;;;;;;3.58;1.80;;;;;;;1.70;88.12;92979.19;5012487;28;20050;-93
2021/11/09 04:22:40;;;;;;;3.97;2.28;;;;;;;1.45;85.54;92994.78;5000480;28;20037;-92
2021/11/09 04:25:29;;;;;;;2.08;1.48;;;;;;;1.42;84.82;92997.81;5013397;28;20037;-93
2021/11/09 04:32:35;;;;;;;1.70;1.13;;;;;;;1.42;83.50;93010.72;5015952;28;20041;-94
2021/11/09 04:49:30;;;;;;;;;;;;;;;;;;;;;
2021/11/09 05:02:06;;;;;;;2.10;1.40;;;;;;;1.45;82.31;93044.59;5035930;28;20083;-93
2021/11/09 05:11:52;;;;;;;;;;;;;;;;;;;;;
2021/11/09 05:15:10;;;;;;;;;;;;;;;;;;;;;
2021/11/09 05:17:55;;;;;;;4.20;1.63;;;;;;;1.31;81.35;93065.63;4978463;28;20479;-94
2021/11/09 05:21:05;;;;;;;1.80;1.20;;;;;;;1.25;81.14;93070.59;4976785;28;20046;-95
2021/11/09 05:24:11;;;;;;;;;;;;;;;;;;;;;
2021/11/09 05:27:26;;;;;;;;;;;;;;;;;;;;;
2021/11/09 05:30:36;;;;;;;2.47;1.35;;;;;;;1.20;82.63;93073.06;5036301;28;20123;-92
2021/11/09 05:41:35;;;;;;;;;;;;;;;;;;;;;
2021/11/09 05:44:21;;;;;;;4.38;1.95;;;;;;;1.29;83.04;93091.63;5015826;28;20096;-91
2021/11/09 05:47:22;;;;;;;2.30;1.50;;;;;;;1.28;82.93;93100.34;4980296;28;20046;-91
2021/11/09 05:50:13;;;;;;;2.95;1.83;;;;;;;1.33;82.25;93107.44;5015177;28;20042;-91
2021/11/09 06:31:49;;;;;;;;;;;;;;;;;;;;;
2021/11/09 06:35:46;;;;;;;13.32;3.42;;;;;;;3.59;80.43;93170.78;4919075;29;20055;-91
2021/11/09 06:39:02;;;;;;;7.53;2.90;;;;;;;5.92;73.63;93150.91;4890364;29;20044;-91
2021/11/09 06:45:56;;;;;;;;;;;;;;;;;;;;;
2021/11/09 07:09:19;;;;;;;2.67;1.40;;;;;;;17.69;34.55;93199.31;4935479;29;20102;-92
2021/11/09 07:27:48;;;;;;;3.38;1.88;;;;;;;22.24;25.48;93201.06;4935315;29;20509;-93
2021/11/09 07:34:37;;;;;;;5.07;2.13;;;;;;;23.57;23.98;93219.44;4995019;28;20163;-95
2021/11/09 07:46:12;;;;;;;2.65;1.50;;;;;;;23.37;22.51;93237.31;4916156;29;20172;-94
2021/11/09 07:53:33;;;;;;;;;;;;;;;;;;;;;
2021/11/09 10:00:13;;;;;;;3.42;2.03;;;;;;;10.56;47.35;93414.13;4931307;29;20044;-92
2021/11/09 10:03:04;;;;;;;3.38;1.50;;;;;;;10.70;44.52;93413.59;4901615;29;20047;-92
2021/11/09 10:09:10;;;;;;;7.65;1.90;;;;;;;9.64;49.81;93419.22;4974926;28;20133;-92
2021/11/09 10:12:30;;;;;;;;;;;;;;;;;;;;;
2021/11/09 10:15:36;;;;;;;3.75;1.98;;;;;;;9.08;52.29;93439.88;4975037;28;20507;-92
2021/11/09 10:18:38;;;;;;;;;;;;;;;;;;;;;
2021/11/09 10:21:21;;;;;;;5.10;2.55;;;;;;;9.94;51.96;93439.41;5036525;28;20045;-95
2021/11/09 10:24:27;;;;;;;2.38;1.58;;;;;;;9.25;52.30;93429.25;5038203;28;20033;-92
2021/11/09 10:27:32;;;;;;;6.45;2.50;;;;;;;9.41;52.90;93437.94;5037027;28;20040;-93
2021/11/09 10:30:36;;;;;;;4.22;1.95;;;;;;;9.29;54.19;93449.38;5038855;28;20055;-92
2021/11/09 10:33:33;;;;;;;4.65;1.85;;;;;;;9.31;53.91;93444.69;5021683;28;20398;-93
2021/11/09 10:37:25;;;;;;;;;;;;;;;;;;;;;
2021/11/09 10:40:17;;;;;;;;;;;;;;;;;;;;;
2021/11/09 10:46:02;;;;;;;;;;;;;;;9.82;54.33;93451.16;5004657;28;20049;-92
2021/11/09 10:48:57;;;;;;;2.97;1.75;;;;;;;10.40;53.48;93431.69;5017378;28;19971;-92
2021/11/09 10:52:03;;;;;;;;;;;;;;;;;;;;;
2021/11/09 10:55:02;;;;;;;7.75;2.70;;;;;;;10.41;53.90;93441.09;5013402;28;20038;-92
2021/11/09 11:04:40;;;;;;;;;;;;;;;;;;;;;
2021/11/09 11:07:13;;;;;;;5.38;2.58;;;;;;;10.49;53.89;93424.09;4997931;28;20046;-92
2021/11/09 11:10:18;;;;;;;;;;;;;;;9.35;59.23;93445.75;5014223;28;20042;-92
2021/11/09 11:13:45;;;;;;;3.63;1.92;;;;;;;9.82;58.24;93432.84;5013906;28;19921;-92
2021/11/09 11:16:19;;;;;;;5.35;2.10;;;;;;;9.74;58.03;93419.22;4987397;28;20054;-93
2021/11/09 11:19:52;;;;;;;;;;;;;;;;;;;;;
2021/11/09 11:22:39;;;;;;;5.25;2.50;;;;;;;10.34;57.37;93418.84;5000671;28;20042;-92
2021/11/09 11:25:43;;;;;;;5.25;2.85;;;;;;;10.75;55.84;93408.34;4991200;28;20060;-92
2021/11/09 11:28:33;;;;;;;;;;;;;;;;;;;;;
2021/11/09 11:32:06;;;;;;;4.57;2.92;;;;;;;10.08;57.26;93436.31;5014102;28;20048;-93
2021/11/09 11:35:33;;;;;;;5.53;3.13;;;;;;;10.37;56.54;93418.31;5021496;28;20121;-92
2021/11/09 11:38:28;;;;;;;;;;;;;;;;;;;;;
2021/11/09 11:41:48;;;;;;;3.80;2.30;;;;;;;9.93;57.44;93416.13;4998300;28;20042;-92
2021/11/09 11:44:42;;;;;;;5.60;2.92;;;;;;;9.42;58.13;93416.00;4999359;28;20046;-92
2021/11/09 11:48:22;;;;;;;7.35;3.47;;;;;;;9.34;59.85;93441.59;5020627;28;20040;-92
2021/11/09 11:51:19;;;;;;;7.78;2.88;;;;;;;8.93;61.09;93425.69;4941163;29;20039;-92
2021/11/09 11:54:25;;;;;;;5.40;2.75;;;;;;;9.07;60.76;93422.63;5001506;28;20050;-91
2021/11/09 11:56:58;;;;;;;6.03;3.08;;;;;;;9.11;60.43;93410.63;5019463;28;20049;-92
2021/11/09 12:11:46;;;;;;;4.47;2.57;;;;;;;8.59;62.62;93429.66;4935755;28;20087;-92
2021/11/09 12:22:36;;;;;;;5.13;2.60;;;;;;;8.90;62.45;93451.53;4916183;29;20102;-92
2021/11/09 12:29:43;;;;;;;5.43;2.67;;;;;;;9.14;61.96;93446.69;4935103;29;20088;-91
2021/11/09 12:32:43;;;;;;;4.95;2.63;;;;;;;8.32;63.34;93438.28;4942576;28;20046;-93
2021/11/09 12:35:34;;;;;;;;;;;;;;;;;;;;;
2021/11/09 12:38:40;;;;;;;8.73;3.42;;;;;;;8.58;64.18;93443.72;4997612;28;20472;-95
2021/11/09 12:42:13;;;;;;;4.97;3.10;;;;;;;8.54;65.35;93464.31;4985190;28;20041;-93
2021/11/09 12:48:48;;;;;;;8.15;4.15;;;;;;;8.18;66.73;93458.78;5026144;28;20057;-94
2021/11/09 12:51:34;;;;;;;7.03;3.83;;;;;;;7.90;68.00;93470.22;5022600;28;20096;-95
2021/11/09 12:54:28;;;;;;;6.63;3.80;;;;;;;7.83;68.57;93469.63;4994853;28;20032;-93
2021/11/09 12:57:30;;;;;;;7.65;3.05;;;;;;;7.91;68.65;93482.22;5016450;28;20048;-93
2021/11/09 13:00:38;;;;;;;;;;;;;;;;;;;;;
2021/11/09 13:03:33;;;;;;;;;;;;;;;;;;;;;
2021/11/09 13:12:30;;;;;;;5.53;3.17;;;;;;;8.74;64.01;93489.78;5016911;28;20038;-94
2021/11/09 13:15:19;;;;;;;6.35;3.10;;;;;;;9.01;63.81;93500.19;4999871;28;20288;-94
2021/11/09 13:18:17;;;;;;;9.55;3.28;;;;;;;8.65;64.08;93506.97;5015495;28;20495;-93
2021/11/09 13:21:06;;;;;;;5.95;3.15;;;;;;;9.02;63.37;93495.72;4998911;28;20046;-95
2021/11/09 13:24:02;;;;;;;5.30;3.15;;;;;;;9.13;62.66;93513.03;5024376;28;20061;-93
2021/11/09 13:27:10;;;;;;;;;;;;;;;;;;;;;
2021/11/09 13:30:13;;;;;;;6.60;3.33;;;;;;;8.64;64.69;93485.25;5015639;28;20045;-94
2021/11/09 13:33:25;;;;;;;;;;;;;;;;;;;;;
2021/11/09 13:36:08;;;;;;;6.38;3.53;;;;;;;8.88;64.21;93493.53;5015829;28;20100;-94
2021/11/09 13:39:00;;;;;;;;;;;;;;;;;;;;;
2021/11/09 13:41:42;;;;;;;8.77;3.67;;;;;;;9.26;63.16;93512.59;5015073;28;20138;-93
2021/11/09 13:47:58;;;;;;;6.95;4.15;;;;;;;8.96;63.82;93498.31;5018868;28;20041;-94
2021/11/09 13:51:34;;;;;;;6.05;3.78;;;;;;;9.03;64.38;93508.53;5000482;28;20068;-92
2021/11/09 13:54:40;;;;;;;;;;;;;;;;;;;;;
2021/11/09 13:57:29;;;;;;;7.53;3.83;;;;;;;8.68;64.66;93506.44;5035641;28;20053;-94
2021/11/09 14:00:34;;;;;;;;;;;;;;;;;;;;;
2021/11/09 14:03:54;;;;;;;7.75;3.60;;;;;;;8.94;64.81;93510.06;5011208;28;20064;-92
2021/11/09 14:07:27;;;;;;;;;;;;;;;;;;;;;
2021/11/09 14:10:33;;;;;;;;;;;;;;;;;;;;;
2021/11/09 14:13:36;;;;;;;6.32;3.92;;;;;;;8.80;65.74;93511.50;5030298;28;20038;-93
2021/11/09 14:16:37;;;;;;;6.47;3.55;;;;;;;8.30;67.64;93516.78;5005727;28;20134;-92
2021/11/09 14:22:41;;;;;;;4.75;2.88;;;;;;;8.09;66.50;93515.00;5029355;28;20050;-91
2021/11/09 14:25:37;;;;;;;5.00;2.72;;;;;;;8.26;65.20;93520.13;5000487;28;20049;-91
2021/11/09 14:28:54;;;;;;;5.80;2.50;;;;;;;8.30;64.24;93529.03;5019286;28;20046;-92
2021/11/09 14:31:48;;;;;;;;;;;;;;;8.41;64.24;93535.97;5018203;28;20056;-91
2021/11/09 14:34:47;;;;;;;4.53;2.30;;;;;;;8.35;64.01;93523.88;5016811;28;19917;-92
2021/11/09 14:37:41;;;;;;;5.78;2.90;;;;;;;8.34;64.14;93530.91;5017009;28;20042;-92
2021/11/09 14:56:21;;;;;;;7.38;3.28;;;;;;;8.28;66.44;93538.94;5017198;28;20038;-76
2021/11/09 14:58:50;;;;;;;6.18;3.58;;;;;;;8.19;66.86;93550.84;5021888;28;20087;-76
2021/11/09 15:01:22;;;;;;;6.05;3.20;;;;;;;8.16;66.64;93556.56;5016511;28;20111;-76
2021/11/09 15:04:08;;;;;;;6.72;3.50;;;;;;;8.12;68.06;93551.81;5048957;28;20037;-76
2021/11/09 15:25:27;;;;;;;8.38;4.55;;;;;;;7.96;67.83;93568.31;5046180;28;20037;-77
2021/11/09 15:28:08;;;;;;;7.95;4.15;;;;;;;7.94;67.87;93562.56;5008281;28;20042;-76
2021/11/09 15:33:35;;;;;;;9.00;3.90;;;;;;;7.95;67.93;93565.94;5021668;28;20061;-77
2021/11/09 15:38:30;;;;;;;6.60;3.05;;;;;;;7.93;68.24;93563.59;5011557;28;20041;-75
2021/11/09 15:40:56;;;;;;;6.55;3.22;;;;;;;7.90;68.43;93556.25;5006232;28;20022;-75
2021/11/09 15:43:22;;;;;;;9.85;3.83;;;;;;;7.85;68.33;93561.41;4995674;28;20046;-78
2021/11/09 15:45:50;;;;;;;7.10;3.22;;;;;;;7.82;68.70;93564.50;5011036;28;20029;-77
2021/11/09 15:48:16;;;;;;;6.60;3.50;;;;;;;7.81;68.98;93570.75;5012284;28;20073;-77
2021/11/09 15:50:44;;;;;;;6.35;3.35;;;;;;;7.67;69.39;93578.91;4990117;28;20041;-76
2021/11/09 15:53:10;;;;;;;5.93;2.85;;;;;;;7.54;70.66;93571.44;5009217;28;20125;-78
2021/11/09 15:55:35;;;;;;;4.60;2.60;;;;;;;7.33;71.61;93577.41;4982767;28;20130;-77
2021/11/09 15:58:01;;;;;;;5.20;3.00;;;;;;;7.37;71.84;93586.31;4972571;28;20042;-77
2021/11/09 16:00:27;;;;;;;7.30;3.42;;;;;;;7.12;73.20;93586.75;4973807;28;20038;-77
2021/11/09 16:02:52;;;;;;;5.00;2.72;;;;;;;6.98;74.88;93589.66;4984066;28;20126;-78
2021/11/09 16:05:19;;;;;;;6.90;3.63;;;;;;;6.93;74.79;93599.19;4975336;28;20400;-77
2021/11/09 16:07:45;;;;;;;7.20;3.92;;;;;;;6.92;74.97;93605.44;4975852;28;20125;-75
2021/11/09 16:10:16;;;;;;;7.25;3.70;;;;;;;6.95;74.49;93610.94;4988659;28;20046;-75
2021/11/09 16:12:42;;;;;;;6.90;3.70;;;;;;;7.00;74.08;93623.25;4990647;28;20031;-74
2021/11/09 16:15:09;;;;;;;7.97;3.63;;;;;;;7.04;73.73;93619.16;4986401;28;20477;-76
2021/11/09 16:17:37;;;;;;;6.95;3.70;;;;;;;7.06;74.14;93622.31;4970922;28;20428;-76
2021/11/09 16:20:04;;;;;;;8.07;3.75;;;;;;;7.09;74.02;93614.03;4976508;28;20030;-78
2021/11/09 16:22:34;;;;;;;6.93;3.88;;;;;;;7.13;73.85;93607.31;4993795;28;20037;-78
2021/11/09 16:25:01;;;;;;;6.88;4.10;;;;;;;7.16;74.29;93616.47;4994536;28;20042;-78
2021/11/09 16:27:27;;;;;;;9.25;4.13;;;;;;;7.17;74.19;93624.06;4986797;28;20413;-77
2021/11/09 16:29:56;;;;;;;12.15;4.93;;;;;;;7.20;74.11;93630.59;4987252;28;20034;-78
2021/11/09 16:32:26;;;;;;;8.73;4.10;;;;;;;7.22;73.44;93616.31;4995926;28;20116;-78
2021/11/09 16:34:56;;;;;;;7.85;4.35;;;;;;;7.26;73.70;93614.81;4977736;28;21166;-78
2021/11/09 16:37:23;;;;;;;7.25;4.65;;;;;;;7.27;73.68;93606.00;4997706;28;20074;-77
2021/11/09 16:39:52;;;;;;;6.88;4.10;;;;;;;7.28;73.68;93609.38;4999887;28;20038;-77
2021/11/09 16:42:19;;;;;;;10.02;4.78;;;;;;;7.32;73.90;93614.88;4991961;28;20058;-78
2021/11/09 16:44:45;;;;;;;6.85;3.88;;;;;;;7.27;74.14;93615.59;4997041;28;20118;-78
2021/11/09 16:47:11;;;;;;;6.22;3.75;;;;;;;7.20;74.13;93613.16;4993138;28;20121;-78
2021/11/09 16:50:04;;;;;;;9.02;4.10;;;;;;;7.33;73.82;93632.88;4977361;28;20575;-77
2021/11/09 16:52:29;;;;;;;8.15;4.38;;;;;;;7.12;74.59;93626.59;5009760;28;20498;-77
2021/11/09 17:00:32;;;;;;;9.50;4.60;;;;;;;7.01;75.74;93656.09;4998742;28;20064;-82
2021/11/09 18:15:53;;;;;;;45.13;17.83;;;;;;;6.68;76.15;93658.38;5001224;28;20092;-81
2021/11/09 18:21:17;;;;;;;14.13;6.38;;;;;;;6.64;75.71;93666.88;4959320;28;20076;-78
2021/11/09 18:23:43;;;;;;;7.78;4.65;;;;;;;6.64;76.11;93670.28;5020180;28;20029;-79
2021/11/09 18:26:10;;;;;;;8.15;4.88;;;;;;;6.62;75.98;93674.13;5049789;28;20029;-79
2021/11/09 18:28:35;;;;;;;11.98;5.38;;;;;;;6.62;76.00;93674.94;5028700;28;20029;-79
2021/11/09 18:31:01;;;;;;;9.70;5.47;;;;;;;6.63;76.21;93675.72;5018109;28;20045;-78
2021/11/09 18:33:27;;;;;;;10.50;5.80;;;;;;;6.64;76.19;93677.28;5023449;28;20017;-78
2021/11/09 18:35:53;;;;;;;19.63;9.52;;;;;;;6.60;76.41;93686.59;5018180;28;20037;-79
2021/11/09 18:38:20;;;;;;;16.40;7.47;;;;;;;6.61;76.81;93690.78;5030659;28;20092;-76
2021/11/09 18:40:46;;;;;;;14.93;5.80;;;;;;;6.58;76.23;93694.63;5026440;28;20029;-79
2021/11/09 18:43:16;;;;;;;10.55;6.10;;;;;;;6.59;76.06;93691.00;5022510;28;20052;-79
2021/11/09 18:45:44;;;;;;;11.30;5.60;;;;;;;6.57;76.05;93685.22;5008787;28;20036;-79
2021/11/09 18:48:12;;;;;;;9.90;6.00;;;;;;;6.55;76.12;93683.88;5005915;28;20076;-76
2021/11/09 18:50:39;;;;;;;12.43;6.43;;;;;;;6.55;76.66;93683.88;5015673;28;20054;-76
2021/11/09 18:53:08;;;;;;;13.50;5.80;;;;;;;6.56;77.10;93680.28;4998030;28;20041;-76
2021/11/09 18:55:35;;;;;;;14.15;5.93;;;;;;;6.55;77.01;93679.50;5018421;28;20037;-76
2021/11/09 18:58:00;;;;;;;10.18;6.03;;;;;;;6.55;76.96;93678.69;5025100;28;20342;-76
2021/11/09 19:00:26;;;;;;;11.52;6.82;;;;;;;6.55;77.45;93678.69;5013289;28;20045;-76
2021/11/09 19:02:52;;;;;;;12.18;6.53;;;;;;;6.62;76.77;93680.13;4999196;28;20471;-79
2021/11/09 19:05:27;;;;;;;12.20;5.68;;;;;;;6.58;77.14;93678.22;5013366;28;20106;-78
2021/11/09 19:07:53;;;;;;;13.68;5.10;;;;;;;6.55;77.00;93673.47;5008900;28;20561;-76
2021/11/09 19:10:19;;;;;;;10.40;6.10;;;;;;;6.51;75.73;93677.56;5006058;28;20065;-78
2021/11/09 19:12:47;;;;;;;9.35;5.13;;;;;;;6.55;75.91;93674.28;5015917;28;20399;-78
2021/11/09 19:15:13;;;;;;;12.57;6.43;;;;;;;6.51;76.18;93674.94;5029214;28;20108;-76
2021/11/09 19:17:40;;;;;;;9.38;5.20;;;;;;;6.47;75.88;93672.81;5008756;28;20029;-78
2021/11/09 19:20:10;;;;;;;20.77;9.57;;;;;;;6.47;76.29;93678.03;5022348;28;20029;-76
2021/11/09 19:22:36;;;;;;;24.13;10.60;;;;;;;6.46;76.15;93679.06;5011007;28;20026;-78
2021/11/09 19:25:05;;;;;;;17.77;8.73;;;;;;;6.44;76.89;93669.91;4998123;28;20441;-76
2021/11/09 19:27:31;;;;;;;11.25;6.45;;;;;;;6.42;77.02;93671.94;4996948;28;20059;-76
2021/11/09 19:29:58;;;;;;;10.63;4.32;;;;;;;6.44;77.38;93673.28;5033088;28;20157;-76
2021/11/09 19:32:24;;;;;;;8.48;4.40;;;;;;;6.40;77.32;93672.16;5029434;28;20128;-76
2021/11/09 19:34:51;;;;;;;10.00;5.15;;;;;;;6.39;77.34;93675.78;5034064;28;20033;-75
2021/11/09 19:37:16;;;;;;;9.32;5.40;;;;;;;6.39;77.06;93680.97;5026599;28;20037;-78
2021/11/09 19:39:42;;;;;;;8.35;5.25;;;;;;;6.36;77.08;93678.84;5024774;28;20057;-76
2021/11/09 19:42:24;;;;;;;11.10;6.30;;;;;;;6.35;77.78;93679.88;5011066;28;20034;-76
2021/11/09 19:44:50;;;;;;;21.33;8.57;;;;;;;6.32;77.74;93677.72;5011779;28;20038;-78
2021/11/09 19:47:16;;;;;;;13.13;6.80;;;;;;;6.34;77.64;93678.28;5050792;28;20039;-75
2021/11/09 19:49:41;;;;;;;9.32;5.28;;;;;;;6.33;77.07;93671.53;5014666;28;20068;-75
2021/11/09 19:52:07;;;;;;;11.50;6.05;;;;;;;6.31;77.07;93672.78;5011058;28;20133;-76
2021/11/09 19:54:33;;;;;;;13.35;5.55;;;;;;;6.25;77.65;93664.06;5027962;28;20481;-76
2021/11/09 19:56:59;;;;;;;10.90;6.05;;;;;;;6.18;77.39;93663.41;5020710;28;20025;-76
2021/11/09 19:59:27;;;;;;;9.02;4.78;;;;;;;6.17;75.69;93667.00;5035904;28;20088;-76
2021/11/09 20:01:53;;;;;;;7.80;5.13;;;;;;;6.13;75.65;93671.13;5016643;28;20061;-78
2021/11/09 20:04:19;;;;;;;10.80;4.90;;;;;;;6.05;75.53;93667.84;5031543;28;20089;-76
2021/11/09 20:06:46;;;;;;;9.07;4.70;;;;;;;5.99;75.87;93663.56;5024739;28;20595;-78
2021/11/09 20:09:13;;;;;;;7.45;4.93;;;;;;;5.95;76.33;93659.06;5018136;28;20021;-77
2021/11/09 20:11:39;;;;;;;7.20;4.15;;;;;;;5.88;76.31;93655.72;5017994;28;20087;-76
2021/11/09 20:17:06;;;;;;;7.70;4.22;;;;;;;5.71;76.76;93655.66;5011384;28;20029;-77
2021/11/09 20:19:32;;;;;;;7.60;4.00;;;;;;;5.62;77.12;93650.78;5033920;28;20056;-76
2021/11/09 20:21:58;;;;;;;6.65;3.70;;;;;;;5.55;76.88;93652.72;5034894;28;20064;-76
2021/11/09 20:24:28;;;;;;;6.55;3.60;;;;;;;5.44;76.80;93656.09;5033800;28;20029;-76
2021/11/09 20:26:56;;;;;;;10.13;4.30;;;;;;;5.38;76.49;93650.00;5015471;28;20147;-76
2021/11/09 20:29:22;;;;;;;7.60;3.78;;;;;;;5.32;76.42;93661.28;5033634;28;20034;-76
2021/11/09 20:31:48;;;;;;;7.65;4.00;;;;;;;5.29;76.20;93666.13;5014645;28;20037;-76
2021/11/09 20:34:15;;;;;;;6.88;3.75;;;;;;;5.28;76.11;93674.94;5007645;28;20048;-76
2021/11/09 20:36:41;;;;;;;7.30;3.30;;;;;;;5.26;76.45;93679.56;5024149;28;20033;-76
2021/11/09 20:39:07;;;;;;;6.80;3.10;;;;;;;5.27;76.20;93668.16;5026345;28;20033;-76
2021/11/09 20:41:33;;;;;;;8.93;2.85;;;;;;;5.30;76.29;93678.13;5013169;28;20534;-76
2021/11/09 20:43:59;;;;;;;7.57;3.90;;;;;;;5.31;75.94;93679.69;5027052;28;20049;-76
2021/11/09 20:46:25;;;;;;;8.65;3.72;;;;;;;5.32;76.00;93671.69;5033468;28;20036;-76
2021/11/09 20:48:52;;;;;;;7.20;2.85;;;;;;;5.33;76.20;93667.28;5023680;28;20060;-76
2021/11/09 20:51:21;;;;;;;5.13;2.55;;;;;;;5.36;76.46;93664.25;5031543;28;20124;-76
2021/11/09 20:53:47;;;;;;;8.20;2.70;;;;;;;5.40;76.47;93667.94;5039928;28;20029;-76
2021/11/09 20:56:13;;;;;;;8.23;3.50;;;;;;;5.38;76.68;93680.38;5025666;28;20040;-77
2021/11/09 20:58:39;;;;;;;5.63;3.20;;;;;;;5.34;76.41;93672.25;5002763;28;20033;-76
2021/11/09 21:01:06;;;;;;;8.40;3.55;;;;;;;5.31;76.54;93679.69;5050791;28;20025;-77
2021/11/09 21:03:32;;;;;;;11.68;5.60;;;;;;;5.26;76.35;93671.78;5022858;28;20055;-77
2021/11/09 21:05:59;;;;;;;11.50;5.13;;;;;;;5.22;76.60;93676.63;5013938;28;20056;-77
2021/11/09 21:08:25;;;;;;;8.93;4.72;;;;;;;5.17;76.67;93674.69;5007711;28;20487;-77
2021/11/09 21:10:51;;;;;;;8.38;3.80;;;;;;;5.13;76.99;93678.75;5029893;28;20029;-77
2021/11/09 21:13:26;;;;;;;7.63;3.33;;;;;;;5.09;77.10;93676.81;5032641;28;20037;-77
2021/11/09 21:18:36;;;;;;;5.75;2.70;;;;;;;5.06;76.36;93698.03;5007154;28;20494;-77
2021/11/09 21:21:08;;;;;;;4.82;2.70;;;;;;;5.06;76.20;93704.00;5008911;28;20033;-77
2021/11/09 21:23:38;;;;;;;5.97;2.58;;;;;;;5.02;76.61;93708.06;5001529;28;20030;-76
2021/11/09 21:26:04;;;;;;;7.75;2.90;;;;;;;5.01;76.32;93712.47;5014458;28;20028;-77
2021/11/09 21:28:45;;;;;;;6.90;3.50;;;;;;;5.02;76.57;93710.66;5028191;28;20049;-76
2021/11/09 21:36:31;;;;;;;5.28;2.63;;;;;;;5.13;76.57;93750.63;5026362;28;20098;-76
2021/11/09 21:38:56;;;;;;;5.47;2.67;;;;;;;5.16;76.58;93740.63;5032403;28;20116;-76
2021/11/09 21:41:22;;;;;;;3.90;2.28;;;;;;;5.20;76.43;93741.75;5012141;28;20041;-76
2021/11/09 21:43:48;;;;;;;4.57;2.40;;;;;;;5.26;76.03;93740.06;5014595;28;20107;-76
2021/11/09 21:46:13;;;;;;;4.63;2.50;;;;;;;5.29;75.73;93744.03;5032251;28;20453;-76
2021/11/09 21:48:40;;;;;;;4.47;2.35;;;;;;;5.33;75.91;93758.16;4996641;28;20041;-76
2021/11/09 21:51:07;;;;;;;7.97;2.40;;;;;;;5.37;75.34;93757.47;5016036;28;20115;-76
2021/11/09 21:53:32;;;;;;;3.80;2.08;;;;;;;5.40;75.54;93756.25;5030735;28;20047;-77
2021/11/09 21:55:58;;;;;;;9.07;3.00;;;;;;;5.45;75.46;93758.97;5014285;28;20037;-76
2021/11/09 21:58:25;;;;;;;5.95;3.50;;;;;;;5.49;75.82;93754.91;5019266;28;20030;-76
2021/11/09 22:03:30;;;;;;;6.68;2.58;;;;;;;5.53;75.87;93740.47;5012667;28;20054;-90
2021/11/09 22:06:25;;;;;;;4.45;2.42;;;;;;;5.49;76.29;93734.13;5007963;28;20037;-91
2021/11/09 22:09:41;;;;;;;;;;;;;;;;;;;;;
2021/11/09 22:12:38;;;;;;;;;;;;;;;;;;;;;
2021/11/09 22:15:38;;;;;;;;;;;;;;;;;;;;;
2021/11/09 22:18:12;;;;;;;4.05;2.15;;;;;;;5.61;74.43;93753.13;5012328;28;20488;-90
2021/11/09 22:24:02;;;;;;;4.13;1.95;;;;;;;5.73;75.00;93760.16;4999786;28;20041;-90
2021/11/09 22:26:43;;;;;;;6.38;2.22;;;;;;;5.70;75.43;93760.59;5006369;28;20050;-90
2021/11/09 22:29:58;;;;;;;4.20;2.15;;;;;;;5.61;74.89;93747.94;4980931;28;20117;-91
2021/11/09 22:32:30;;;;;;;8.02;2.25;;;;;;;5.68;74.98;93766.00;5009428;28;20089;-92
2021/11/09 22:35:30;;;;;;;3.20;1.88;;;;;;;5.66;75.00;93769.84;4990037;28;20089;-91
2021/11/09 22:38:56;;;;;;;5.32;2.70;;;;;;;5.67;74.90;93767.00;4997920;28;20046;-91
2021/11/09 22:41:48;;;;;;;;;;;;;;;;;;;;;
2021/11/09 22:44:28;;;;;;;5.90;2.80;;;;;;;5.64;75.84;93749.28;5009232;28;20146;-94
2021/11/09 22:47:26;;;;;;;5.65;2.75;;;;;;;5.67;75.94;93761.03;4995836;28;20043;-91
2021/11/09 22:50:18;;;;;;;;;;;;;;;;;;;;;
2021/11/09 22:53:30;;;;;;;;;;;;;;;;;;;;;
2021/11/09 22:56:48;;;;;;;6.13;2.83;;;;;;;5.84;76.00;93778.34;4996821;28;20042;-90
2021/11/09 22:59:51;;;;;;;5.20;2.50;;;;;;;5.86;76.15;93762.53;5010596;28;20487;-92
2021/11/09 23:02:45;;;;;;;6.13;3.30;;;;;;;5.86;75.92;93752.13;4977773;28;20053;-90
2021/11/09 23:08:43;;;;;;;5.07;2.38;;;;;;;5.85;76.21;93729.75;4991399;28;20525;-90
2021/11/09 23:11:24;;;;;;;7.88;3.22;;;;;;;5.84;76.01;93739.34;4989078;28;20030;-91
2021/11/09 23:14:33;;;;;;;5.13;2.60;;;;;;;5.85;75.63;93737.53;4995191;28;20053;-90
2021/11/09 23:17:28;;;;;;;4.78;2.42;;;;;;;5.84;75.90;93735.97;5002799;28;20042;-90
2021/11/09 23:20:19;;;;;;;;;;;;;;;;;;;;;
2021/11/09 23:23:39;;;;;;;5.70;2.95;;;;;;;5.97;75.31;93753.97;4995430;28;20047;-92
2021/11/09 23:26:44;;;;;;;4.72;2.95;;;;;;;5.91;75.63;93741.06;4995349;28;20053;-89